Hlavní strana
METAR-TAF:

METAR-TAF

Letiště :

Kramfors, Švédsko

zeměpisná šířka: 63-03N, zeměpisná délka: 017-46E, výška: 10 m

Aktuální stav počasí

Zpráva byla vytvořena před 22 minutami, v 04:50 UTC
Severozápadní vítr 3 kt
Teplota 3°C
Vlhkost vzduchu 93%
Tlak 1017 hPa
Viditelnost: 0400 m
mlha

METAR: ESNK 220450Z 31003KT 0400 R17/0600N R35/0650N FG VV002 03/02 Q1017

Čas: 07:12 (05:12 UTC)

Předpověď počasí

Zpráva byla vytvořena před 42 minutami, v 04:30 UTC
Předpověď platná od 22 v 05 UTC do 22 v 09 UTC
Severozápadní vítr 2 kt
Viditelnost: 0500 m
ve výšce 200 ft
mlha
Změna
od 22 v 05 UTC do 22 v 07 UTC
Jižní vítr 10 kt
Viditelnost 10 km a více
Žádná oblačnost pod 1500 m, nevyskytují se cumulonimby.

TAF: ESNK 220430Z 2205/2209 31002KT 0500 FG VV002 BECMG 2205/2207 17010KT CAVOK

Stav a předpovědi počasí z více než 4 000 letišť (zprávy METAR a TAF).

Červené a žluté tečky na mapě představují dostupné meteorologické stanice.

Když kurzor umístíte na tečku, zobrazí se název stanice.

Pak kliknutím zobrazíte stav a předpověď počasí.

Chcete-li změnit mapu, kliknutím na zelené tlačítko se znaménkem +mapu přiblížíte, kliknutím na zelené tlačítko se znaménkem – mapu oddálíte a kliknutím na zelené šipky přejdete na sousední mapy.


METAR-TAF: